Terminal Aerodrome Forecast
Issued by NWS

Home | Current Version | Previous Version | Text Only | Print | Product List | Glossary On
Versions: 1 2 3 4 5 6 7 8 9 10 11 12 13 14 15 16 17 18
000
FTUS43 KGRB 281727
TAFATW
TAF
KATW 281727Z 2818/2918 21010KT P6SM SCT050
     FM282300 14006KT P6SM SCT050 OVC120
      TEMPO 2903/2906 BKN050
     FM290800 VRB03KT 5SM BR BKN050 PROB30 2909/2913 -SHRA
     FM291300 10006KT P6SM SCT050 OVC100=

USA.gov is the U.S. government's official web portal to all federal, state and local government web resources and services.